首页
METAR-TAF:

METAR-TAF

机场 :

卡拉马祖 / 巴特爾克里克, 密歇根州, 美国

纬度: 42-13-45N, 经度: 085-32-47W, 海拔: 266米

当前天气观测

该预报发布于27分钟前的18:53 UTC
风速16节,风向西北,有时为23节阵风
温度 1°C
湿度 69%
气压 1019 hPa
能見度: 16.1公里
阴天层高于1800英尺

METAR: KAZO 181853Z 31016G23KT 10SM OVC018 01/M04 A3009 RMK AO2 PK WND 29027/1828 SLP198 T00061039

时间: 14:20 (19:20 UTC)

预报

该预报发布于1小时和33分钟前的17:47 UTC
预报有效从18日的 18点(UTC)到 19日的 18点(UTC)
风速17节,风向西转西北,有时为27节阵风
能見度: 10公里
阴天层高于2500英尺
从 18日的 2100点(UTC)
风速15节,风向西转西北,有时为25节阵风
能見度: 10公里
多云层高于3500英尺
从 19日的 0200点(UTC)
风速13节,风向西转西北,有时为23节阵风
能見度: 10公里
多云层高于2500英尺
从 19日的 0600点(UTC)
风速12节,风向西北,有时为22节阵风
能見度: 10公里
阴天层高于3000英尺
小阵雪
从 19日的 1000点(UTC)
风速11节,风向西北
能見度: 10公里
多云层高于3500英尺
小阵雪

TAF: KAZO 181747Z 1818/1918 30017G27KT P6SM OVC025 FM182100 30015G25KT P6SM BKN035 FM190200 30013G23KT P6SM BKN025 FM190600 32012G22KT P6SM -SHSN OVC030 FM191000 32011KT P6SM -SHSN BKN035

超过4000个机场的气象观测和天气预报(METAR&TAF报告)。

可查询的气象台以黄色和红色小点在地图上表示。

将鼠标移到小点上方,可查看气象台名称。

然后点击查看天气观测和预报。

如需切换地图:点击带黑十字的绿色按钮放大地图;点击带横线的绿色按钮缩小地图;或者点击绿色箭头查看邻近地区的地图。


METAR-TAF: